Fords Branch, Kentucky
Current Conditions -  °F | °C
As of 8:35 AM on Thursday 23 Oct 2014 (Local Time) from KPBX Reporting Station
Overcast Overcast  
Wind Chill: 44°   Ceiling: 3000
Heat Index: 44°   Visibility: 10mi
Dew Point: 40°   Wind: 3mph
Humidity: 86%   Direction: 290°WNW
Pressure: 30.22"   Gusts: NA
Location:  37.43°N, 82.51°W
Report Text: KPBX 231235Z AUTO 29003KT 10SM OVC030 07/05 A3022 RMK AO2 T00680046
Loading
Personal Weather Stations






























Interactive Weather Map
Tropical Storm Tracking
New forecast layout! Learn more

10-Day Weather Forecast

Advertisements
Track Severe Weather on mobile